createdAt,value
2019-03-19T00:00:40.584Z,88.84
2019-03-19T00:01:40.584Z,88.52
2019-03-19T00:02:40.565Z,88.62
2019-03-19T00:03:40.576Z,88.52
2019-03-19T00:04:40.545Z,88.00
2019-03-19T00:05:40.532Z,87.79
2019-03-19T00:06:40.521Z,88.00
2019-03-19T00:07:40.516Z,88.00
2019-03-19T00:08:40.523Z,88.00
2019-03-19T00:09:40.498Z,88.04
2019-03-19T00:10:40.480Z,87.94
2019-03-19T00:11:40.476Z,87.90
2019-03-19T00:12:40.463Z,87.94
2019-03-19T00:13:40.476Z,87.84
2019-03-19T00:14:40.438Z,88.25
2019-03-19T00:15:40.435Z,88.25
2019-03-19T00:16:40.416Z,88.15
2019-03-19T00:17:40.423Z,87.73
2019-03-19T00:18:40.412Z,88.04
2019-03-19T00:19:40.388Z,88.60
2019-03-19T00:20:40.374Z,88.46
2019-03-19T00:21:40.378Z,88.98
2019-03-19T00:22:40.357Z,89.08
2019-03-19T00:23:40.359Z,89.39
2019-03-19T00:24:40.376Z,89.60
2019-03-19T00:25:40.323Z,89.39
2019-03-19T00:26:40.317Z,89.43
2019-03-19T00:27:40.317Z,89.39
2019-03-19T00:28:40.307Z,88.98
2019-03-19T00:29:40.283Z,88.87
2019-03-19T00:30:40.273Z,88.98
2019-03-19T00:31:40.265Z,88.81
2019-03-19T00:32:40.260Z,88.46
2019-03-19T00:33:40.264Z,88.56
2019-03-19T00:34:40.236Z,88.04
2019-03-19T00:35:40.219Z,88.92
2019-03-19T00:36:40.211Z,88.77
2019-03-19T00:37:40.204Z,89.18
2019-03-19T00:38:40.215Z,90.44
2019-03-19T00:39:40.179Z,89.81
2019-03-19T00:40:40.168Z,90.33
2019-03-19T00:41:40.156Z,90.54
2019-03-19T00:42:40.165Z,90.02
2019-03-19T00:43:40.136Z,90.44
2019-03-19T00:44:40.149Z,90.12
2019-03-19T00:45:40.119Z,89.92
2019-03-19T00:46:40.108Z,90.02
2019-03-19T00:47:40.096Z,90.02
2019-03-19T00:48:40.098Z,90.23
2019-03-19T00:49:40.097Z,89.98
2019-03-19T00:50:40.063Z,89.36
2019-03-19T00:51:40.054Z,89.56
2019-03-19T00:52:40.051Z,89.36
2019-03-19T00:53:40.032Z,89.15
2019-03-19T00:54:40.044Z,88.31
2019-03-19T00:55:41.119Z,88.62
2019-03-19T00:56:40.010Z,88.52
2019-03-19T00:57:40.010Z,88.00
2019-03-19T00:58:39.979Z,88.10
2019-03-19T00:59:39.984Z,87.69
2019-03-19T01:00:39.961Z,88.21
2019-03-19T01:01:39.968Z,88.10
2019-03-19T01:02:39.946Z,88.31
2019-03-19T01:03:39.940Z,87.69
2019-03-19T01:04:39.936Z,87.48
2019-03-19T01:05:39.925Z,88.10
2019-03-19T01:06:39.905Z,88.10
2019-03-19T01:07:39.917Z,88.00
2019-03-19T01:08:39.876Z,87.65
2019-03-19T01:09:39.880Z,88.17
2019-03-19T01:10:39.854Z,88.17
2019-03-19T01:11:39.845Z,87.96
2019-03-19T01:12:39.852Z,88.00
2019-03-19T01:13:39.832Z,87.65
2019-03-19T01:14:39.840Z,87.96
2019-03-19T01:15:39.812Z,87.76
2019-03-19T01:16:39.792Z,87.65
2019-03-19T01:17:39.793Z,87.76
2019-03-19T01:18:39.794Z,87.96
2019-03-19T01:19:39.773Z,87.76
2019-03-19T01:20:39.752Z,87.86
2019-03-19T01:21:39.745Z,88.07
2019-03-19T01:22:39.749Z,86.82
2019-03-19T01:23:39.725Z,88.07
2019-03-19T01:24:39.732Z,88.07
2019-03-19T01:25:39.760Z,87.96
2019-03-19T01:26:39.714Z,87.76
2019-03-19T01:27:39.690Z,87.76
2019-03-19T01:28:39.672Z,87.65
2019-03-19T01:29:39.670Z,88.00
2019-03-19T01:30:39.668Z,87.90
2019-03-19T01:31:39.650Z,87.90
2019-03-19T01:32:39.637Z,87.86
2019-03-19T01:33:39.633Z,87.96
2019-03-19T01:34:39.618Z,87.96
2019-03-19T01:35:39.595Z,87.90
2019-03-19T01:36:39.595Z,87.79
2019-03-19T01:37:39.577Z,87.69
2019-03-19T01:38:39.590Z,87.65
2019-03-19T01:39:39.565Z,87.34
2019-03-19T01:40:39.546Z,88.17
2019-03-19T01:41:39.535Z,87.79
2019-03-19T01:42:39.534Z,88.10
2019-03-19T01:43:39.526Z,87.90
2019-03-19T01:44:39.524Z,87.90
2019-03-19T01:45:39.491Z,88.10
2019-03-19T01:46:39.511Z,88.10
2019-03-19T01:47:39.481Z,87.69
2019-03-19T01:48:39.468Z,88.00
2019-03-19T01:49:39.462Z,87.79
2019-03-19T01:50:39.442Z,88.10
2019-03-19T01:51:39.433Z,88.10
2019-03-19T01:52:39.437Z,87.90
2019-03-19T01:53:39.411Z,88.00
2019-03-19T01:54:39.410Z,87.90
2019-03-19T01:55:39.391Z,88.00
2019-03-19T01:56:39.384Z,87.90
2019-03-19T01:57:39.368Z,87.79
2019-03-19T01:58:39.358Z,88.31
2019-03-19T01:59:39.391Z,87.73
2019-03-19T02:00:39.339Z,88.21
2019-03-19T02:01:39.346Z,88.21
2019-03-19T02:02:39.317Z,88.31
2019-03-19T02:03:39.307Z,88.35
2019-03-19T02:04:39.295Z,88.21
2019-03-19T02:05:39.299Z,88.10
2019-03-19T02:06:39.285Z,88.15
2019-03-19T02:07:39.268Z,88.42
2019-03-19T02:08:39.274Z,88.31
2019-03-19T02:09:39.247Z,88.10
2019-03-19T02:10:39.249Z,87.69
2019-03-19T02:11:39.222Z,88.25
2019-03-19T02:12:39.215Z,88.15
2019-03-19T02:13:39.204Z,88.00
2019-03-19T02:14:39.202Z,88.21
2019-03-19T02:15:39.197Z,88.21
2019-03-19T02:16:39.191Z,88.46
2019-03-19T02:17:39.167Z,88.35
2019-03-19T02:18:39.162Z,88.15
2019-03-19T02:19:39.153Z,88.31
2019-03-19T02:20:39.141Z,88.31
2019-03-19T02:21:39.132Z,88.35
2019-03-19T02:22:39.116Z,88.42
2019-03-19T02:23:39.098Z,88.00
2019-03-19T02:24:39.092Z,88.10
2019-03-19T02:25:39.103Z,88.21
2019-03-19T02:26:39.072Z,88.10
2019-03-19T02:27:39.075Z,87.69
2019-03-19T02:28:39.054Z,88.25
2019-03-19T02:29:39.045Z,87.69
2019-03-19T02:30:39.041Z,88.21
2019-03-19T02:31:39.038Z,87.59
2019-03-19T02:32:39.007Z,88.25
2019-03-19T02:33:38.996Z,87.59
2019-03-19T02:34:39.030Z,88.21
2019-03-19T02:35:38.997Z,88.10
2019-03-19T02:36:38.975Z,87.94
2019-03-19T02:37:38.951Z,87.69
2019-03-19T02:38:38.966Z,87.63
2019-03-19T02:39:38.936Z,88.35
2019-03-19T02:40:38.923Z,87.73
2019-03-19T02:41:38.939Z,87.73
2019-03-19T02:42:38.917Z,88.15
2019-03-19T02:43:38.901Z,88.04
2019-03-19T02:44:38.895Z,88.04
2019-03-19T02:45:38.885Z,88.56
2019-03-19T02:46:38.860Z,88.67
2019-03-19T02:47:38.850Z,88.56
2019-03-19T02:48:38.841Z,88.87
2019-03-19T02:49:38.846Z,89.29
2019-03-19T02:50:38.835Z,89.29
2019-03-19T02:51:38.813Z,89.18
2019-03-19T02:52:38.820Z,89.39
2019-03-19T02:53:38.795Z,89.39
2019-03-19T02:54:38.777Z,88.98
2019-03-19T02:55:38.778Z,88.62
2019-03-19T02:56:38.756Z,88.84
2019-03-19T02:57:38.754Z,88.46
2019-03-19T02:58:38.737Z,88.31
2019-03-19T02:59:38.736Z,88.00
2019-03-19T03:00:38.720Z,88.10
2019-03-19T03:01:38.705Z,88.42
2019-03-19T03:02:38.696Z,88.73
2019-03-19T03:03:38.684Z,88.31
2019-03-19T03:04:38.674Z,88.10
2019-03-19T03:05:38.677Z,88.31
2019-03-19T03:06:38.667Z,88.31
2019-03-19T03:07:38.650Z,88.31
2019-03-19T03:08:38.632Z,88.31
2019-03-19T03:09:38.620Z,88.52
2019-03-19T03:10:38.633Z,88.73
2019-03-19T03:11:38.605Z,88.62
2019-03-19T03:12:38.596Z,88.21
2019-03-19T03:13:38.593Z,88.10
2019-03-19T03:14:38.573Z,87.79
2019-03-19T03:15:38.572Z,88.31
2019-03-19T03:16:38.553Z,88.00
2019-03-19T03:17:38.539Z,88.00
2019-03-19T03:18:38.537Z,87.90
2019-03-19T03:19:38.518Z,88.00
2019-03-19T03:20:38.583Z,88.00
2019-03-19T03:21:38.497Z,87.69
2019-03-19T03:22:38.497Z,87.45
2019-03-19T03:23:38.478Z,87.69
2019-03-19T03:24:38.464Z,88.17
2019-03-19T03:25:38.472Z,87.86
2019-03-19T03:26:47.703Z,87.96
2019-03-19T03:27:39.439Z,87.96
2019-03-19T03:28:38.443Z,87.96
2019-03-19T03:29:38.417Z,88.07
2019-03-19T03:30:38.461Z,87.55
2019-03-19T03:31:38.436Z,87.96
2019-03-19T03:32:38.401Z,87.76
2019-03-19T03:33:38.382Z,87.96
2019-03-19T03:34:38.379Z,87.96
2019-03-19T03:35:38.355Z,87.86
2019-03-19T03:36:38.372Z,88.17
2019-03-19T03:37:38.338Z,87.96
2019-03-19T03:38:38.326Z,88.17
2019-03-19T03:39:38.314Z,87.86
2019-03-19T03:40:38.314Z,87.86
2019-03-19T03:41:38.318Z,87.65
2019-03-19T03:42:38.289Z,87.76
2019-03-19T03:43:38.293Z,88.28
2019-03-19T03:44:38.259Z,87.65
2019-03-19T03:45:38.249Z,88.38
2019-03-19T03:46:38.262Z,88.28
2019-03-19T03:47:38.234Z,87.96
2019-03-19T03:48:38.226Z,88.42
2019-03-19T03:49:38.215Z,88.59
2019-03-19T03:50:38.197Z,88.79
2019-03-19T03:51:38.200Z,88.48
2019-03-19T03:52:38.200Z,88.90
2019-03-19T03:53:38.166Z,88.48
2019-03-19T03:54:38.157Z,88.69
2019-03-19T03:55:38.146Z,88.90
2019-03-19T03:56:38.149Z,88.90
2019-03-19T03:57:38.123Z,88.90
2019-03-19T03:58:38.114Z,88.59
2019-03-19T03:59:38.102Z,88.28
2019-03-19T04:00:38.091Z,88.28
2019-03-19T04:01:38.101Z,88.07
2019-03-19T04:02:38.079Z,88.07
2019-03-19T04:03:38.059Z,87.65
2019-03-19T04:04:38.049Z,88.17
2019-03-19T04:05:38.040Z,87.51
2019-03-19T04:06:38.052Z,88.13
2019-03-19T04:07:38.021Z,88.23
2019-03-19T04:08:38.012Z,88.13
2019-03-19T04:09:38.005Z,88.02
2019-03-19T04:10:38.021Z,88.54
2019-03-19T04:11:37.990Z,88.54
2019-03-19T04:12:37.966Z,88.75
2019-03-19T04:13:37.962Z,88.23
2019-03-19T04:14:37.949Z,88.02
2019-03-19T04:15:37.942Z,88.34
2019-03-19T04:16:37.941Z,88.54
2019-03-19T04:17:37.918Z,88.34
2019-03-19T04:18:37.935Z,88.44
2019-03-19T04:19:37.901Z,88.54
2019-03-19T04:20:37.895Z,88.44
2019-03-19T04:21:37.905Z,88.54
2019-03-19T04:22:37.928Z,88.75
2019-03-19T04:23:37.873Z,88.75
2019-03-19T04:24:37.843Z,88.75
2019-03-19T04:25:37.840Z,88.54
2019-03-19T04:26:37.839Z,88.44
2019-03-19T04:27:40.373Z,88.34
2019-03-19T04:28:37.802Z,88.44
2019-03-19T04:29:37.800Z,88.13
2019-03-19T04:30:37.784Z,88.02
2019-03-19T04:31:37.819Z,88.13
2019-03-19T04:32:37.767Z,88.20
2019-03-19T04:33:37.756Z,87.61
2019-03-19T04:34:37.739Z,88.23
2019-03-19T04:35:37.727Z,87.82
2019-03-19T04:36:37.723Z,88.23
2019-03-19T04:37:37.722Z,87.92
2019-03-19T04:38:37.699Z,88.23
2019-03-19T04:39:37.697Z,88.02
2019-03-19T04:40:37.679Z,87.61
2019-03-19T04:41:37.666Z,88.02
2019-03-19T04:42:37.675Z,88.13
2019-03-19T04:43:37.646Z,88.13
2019-03-19T04:44:37.639Z,87.92
2019-03-19T04:45:37.624Z,88.02
2019-03-19T04:46:37.627Z,88.13
2019-03-19T04:47:37.614Z,88.44
2019-03-19T04:48:37.607Z,88.65
2019-03-19T04:49:37.588Z,88.54
2019-03-19T04:50:37.574Z,88.65
2019-03-19T04:51:37.561Z,88.75
2019-03-19T04:52:37.563Z,88.34
2019-03-19T04:53:37.552Z,88.23
2019-03-19T04:54:37.533Z,88.02
2019-03-19T04:55:37.524Z,87.61
2019-03-19T04:56:37.510Z,87.82
2019-03-19T04:57:37.513Z,88.34
2019-03-19T04:58:37.508Z,88.54
2019-03-19T04:59:37.485Z,88.44
2019-03-19T05:00:37.477Z,88.59
2019-03-19T05:01:37.460Z,88.34
2019-03-19T05:02:37.474Z,88.54
2019-03-19T05:03:37.461Z,88.48
2019-03-19T05:04:37.442Z,88.38
2019-03-19T05:05:37.419Z,88.02
2019-03-19T05:06:37.416Z,88.38
2019-03-19T05:07:37.409Z,88.54
2019-03-19T05:08:37.390Z,88.54
2019-03-19T05:09:37.376Z,88.44
2019-03-19T05:10:37.382Z,88.54
2019-03-19T05:11:37.355Z,88.75
2019-03-19T05:12:37.356Z,88.85
2019-03-19T05:13:37.343Z,88.54
2019-03-19T05:14:37.341Z,88.44
2019-03-19T05:15:37.315Z,89.06
2019-03-19T05:16:37.307Z,88.96
2019-03-19T05:17:37.303Z,88.75
2019-03-19T05:18:37.291Z,89.17
2019-03-19T05:19:37.278Z,88.85
2019-03-19T05:20:37.267Z,88.85
2019-03-19T05:21:37.252Z,88.96
2019-03-19T05:22:37.261Z,88.85
2019-03-19T05:23:37.234Z,88.96
2019-03-19T05:24:37.222Z,88.96
2019-03-19T05:25:37.208Z,88.96
2019-03-19T05:26:37.199Z,88.85
2019-03-19T05:27:37.912Z,88.44
2019-03-19T05:28:37.190Z,88.75
2019-03-19T05:29:37.168Z,88.44
2019-03-19T05:30:37.157Z,88.85
2019-03-19T05:31:37.162Z,88.44
2019-03-19T05:32:37.191Z,88.75
2019-03-19T05:33:37.139Z,88.34
2019-03-19T05:34:37.123Z,88.44
2019-03-19T05:35:37.106Z,88.59
2019-03-19T05:36:37.098Z,88.54
2019-03-19T05:37:37.088Z,88.96
2019-03-19T05:38:37.097Z,88.79
2019-03-19T05:39:37.067Z,88.54
2019-03-19T05:40:37.056Z,88.59
2019-03-19T05:41:37.047Z,88.28
2019-03-19T05:42:37.036Z,88.44
2019-03-19T05:43:37.037Z,88.75
2019-03-19T05:44:37.057Z,88.54
2019-03-19T05:45:37.005Z,88.85
2019-03-19T05:46:37.036Z,88.96
2019-03-19T05:47:40.222Z,89.06
2019-03-19T05:48:36.987Z,88.85
2019-03-19T05:49:36.973Z,88.54
2019-03-19T05:50:36.962Z,88.54
2019-03-19T05:51:36.952Z,88.02
2019-03-19T05:52:36.957Z,88.13
2019-03-19T05:53:36.939Z,87.82
2019-03-19T05:54:36.917Z,87.92
2019-03-19T05:55:36.905Z,88.13
2019-03-19T05:56:36.897Z,88.13
2019-03-19T05:57:48.387Z,87.68
2019-03-19T05:58:37.892Z,87.82
2019-03-19T05:59:36.974Z,87.82
2019-03-19T06:00:36.862Z,87.88
2019-03-19T06:01:36.848Z,86.95
2019-03-19T06:02:36.846Z,86.99
2019-03-19T06:03:36.869Z,86.85
2019-03-19T06:04:36.805Z,88.09
2019-03-19T06:05:36.797Z,88.02
2019-03-19T06:06:36.835Z,87.78
2019-03-19T06:07:36.779Z,87.71
2019-03-19T06:08:36.791Z,87.61
2019-03-19T06:09:36.757Z,87.92
2019-03-19T06:10:36.762Z,87.88
2019-03-19T06:11:36.736Z,87.61
2019-03-19T06:12:36.722Z,87.92
2019-03-19T06:13:36.745Z,87.82
2019-03-19T06:14:36.701Z,87.71
2019-03-19T06:15:36.702Z,87.92
2019-03-19T06:16:36.689Z,87.82
2019-03-19T06:17:36.687Z,87.61
2019-03-19T06:18:36.693Z,88.13
2019-03-19T06:19:36.680Z,87.61
2019-03-19T06:20:36.668Z,87.82
2019-03-19T06:21:36.629Z,87.82
2019-03-19T06:22:36.638Z,87.92
2019-03-19T06:23:36.621Z,87.51
2019-03-19T06:24:36.610Z,87.61
2019-03-19T06:25:36.587Z,87.61
2019-03-19T06:26:36.598Z,88.02
2019-03-19T06:27:36.566Z,88.02
2019-03-19T06:28:36.572Z,88.02
2019-03-19T06:29:36.551Z,88.65
2019-03-19T06:30:36.538Z,88.65
2019-03-19T06:31:36.559Z,88.44
2019-03-19T06:32:36.515Z,88.44
2019-03-19T06:33:36.517Z,87.92
2019-03-19T06:34:36.493Z,88.23
2019-03-19T06:35:36.487Z,88.02
2019-03-19T06:36:36.478Z,87.61
2019-03-19T06:37:36.484Z,87.82
2019-03-19T06:38:36.479Z,87.82
2019-03-19T06:39:36.446Z,88.02
2019-03-19T06:40:36.450Z,86.64
2019-03-19T06:41:36.422Z,88.20
2019-03-19T06:42:36.418Z,87.37
2019-03-19T06:43:36.412Z,86.85
2019-03-19T06:44:36.401Z,87.05
2019-03-19T06:45:36.380Z,86.74
2019-03-19T06:46:36.385Z,87.16
2019-03-19T06:47:36.359Z,86.85
2019-03-19T06:48:36.368Z,86.68
2019-03-19T06:49:36.360Z,86.57
2019-03-19T06:50:44.658Z,86.33
2019-03-19T06:51:37.324Z,86.26
2019-03-19T06:52:36.309Z,86.12
2019-03-19T06:53:36.327Z,86.22
2019-03-19T06:54:36.295Z,86.74
2019-03-19T06:55:36.325Z,86.43
2019-03-19T06:56:36.272Z,87.01
2019-03-19T06:57:39.369Z,87.37
2019-03-19T06:58:36.248Z,87.57
2019-03-19T06:59:36.260Z,87.99
2019-03-19T07:00:36.232Z,87.57
2019-03-19T07:01:36.223Z,88.05
2019-03-19T07:02:36.234Z,86.74
2019-03-19T07:03:36.200Z,86.39
2019-03-19T07:04:36.205Z,86.39
2019-03-19T07:05:36.175Z,86.95
2019-03-19T07:06:36.178Z,86.80
2019-03-19T07:07:36.159Z,86.70
2019-03-19T07:08:36.143Z,87.12
2019-03-19T07:09:36.186Z,88.05
2019-03-19T07:10:36.132Z,86.70
2019-03-19T07:11:36.111Z,87.74
2019-03-19T07:12:36.107Z,87.07
2019-03-19T07:13:36.129Z,86.66
2019-03-19T07:14:36.107Z,86.76
2019-03-19T07:15:36.070Z,86.45
2019-03-19T07:16:36.058Z,86.35
2019-03-19T07:17:36.059Z,86.45
2019-03-19T07:18:36.052Z,85.83
2019-03-19T07:19:36.046Z,85.00
2019-03-19T07:20:36.019Z,84.28
2019-03-19T07:21:36.007Z,83.76
2019-03-19T07:22:36.005Z,83.55
2019-03-19T07:23:35.986Z,84.80
2019-03-19T07:24:36.058Z,84.07
2019-03-19T07:25:35.964Z,84.69
2019-03-19T07:26:35.957Z,84.59
2019-03-19T07:27:35.943Z,84.48
2019-03-19T07:28:35.932Z,85.11
2019-03-19T07:29:35.943Z,85.06
2019-03-19T07:30:35.913Z,84.44
2019-03-19T07:31:35.909Z,83.34
2019-03-19T07:32:35.900Z,83.10
2019-03-19T07:33:35.885Z,83.31
2019-03-19T07:34:35.899Z,83.00
2019-03-19T07:35:35.900Z,82.17
2019-03-19T07:36:35.848Z,83.00
2019-03-19T07:37:35.846Z,83.51
2019-03-19T07:38:35.832Z,83.31
2019-03-19T07:39:35.848Z,83.41
2019-03-19T07:40:35.807Z,83.31
2019-03-19T07:41:35.798Z,83.93
2019-03-19T07:42:35.792Z,83.62
2019-03-19T07:43:35.779Z,82.06
2019-03-19T07:44:35.807Z,82.48
2019-03-19T07:45:35.767Z,82.65
2019-03-19T07:46:35.747Z,82.37
2019-03-19T07:47:35.743Z,82.65
2019-03-19T07:48:35.726Z,83.06
2019-03-19T07:49:35.713Z,83.58
2019-03-19T07:50:35.733Z,83.47
2019-03-19T07:51:35.697Z,83.58
2019-03-19T07:52:35.684Z,82.65
2019-03-19T07:53:35.674Z,82.65
2019-03-19T07:54:35.683Z,82.48
2019-03-19T07:55:35.656Z,82.13
2019-03-19T07:56:35.677Z,81.99
2019-03-19T07:57:35.677Z,82.03
2019-03-19T07:58:44.760Z,82.13
2019-03-19T07:59:36.674Z,82.23
2019-03-19T08:00:35.640Z,81.78
2019-03-19T08:01:35.595Z,81.16
2019-03-19T08:02:35.584Z,81.68
2019-03-19T08:03:35.577Z,81.78
2019-03-19T08:04:35.560Z,81.37
2019-03-19T08:05:35.560Z,81.37
2019-03-19T08:06:35.539Z,80.19
2019-03-19T08:07:35.527Z,81.05
2019-03-19T08:08:35.530Z,80.91
2019-03-19T08:09:35.616Z,80.64
2019-03-19T08:10:35.512Z,80.74
2019-03-19T08:11:35.488Z,80.40
2019-03-19T08:12:35.480Z,80.29
2019-03-19T08:13:35.466Z,80.91
2019-03-19T08:14:35.456Z,81.33
2019-03-19T08:15:35.447Z,81.43
2019-03-19T08:16:35.444Z,81.43
2019-03-19T08:17:35.434Z,81.43
2019-03-19T08:18:36.231Z,80.91
2019-03-19T08:19:35.412Z,80.71
2019-03-19T08:20:35.422Z,81.02
2019-03-19T08:21:35.387Z,79.53
2019-03-19T08:22:35.411Z,79.33
2019-03-19T08:23:35.377Z,80.05
2019-03-19T08:24:35.350Z,80.67
2019-03-19T08:25:35.368Z,79.74
2019-03-19T08:26:35.328Z,79.84
2019-03-19T08:27:35.325Z,79.43
2019-03-19T08:28:35.324Z,79.63
2019-03-19T08:29:35.299Z,79.33
2019-03-19T08:30:35.293Z,79.02
2019-03-19T08:31:35.280Z,79.53
2019-03-19T08:32:35.266Z,80.15
2019-03-19T08:33:35.255Z,80.67
2019-03-19T08:34:36.348Z,81.05
2019-03-19T08:35:35.238Z,80.53
2019-03-19T08:36:35.234Z,80.15
2019-03-19T08:37:35.239Z,79.29
2019-03-19T08:38:35.206Z,79.49
2019-03-19T08:39:36.636Z,79.60
2019-03-19T08:40:35.195Z,79.66
2019-03-19T08:41:35.171Z,79.87
2019-03-19T08:42:35.164Z,79.77
2019-03-19T08:43:35.193Z,79.46
2019-03-19T08:44:35.142Z,79.36
2019-03-19T08:45:35.147Z,78.80
2019-03-19T08:46:35.128Z,79.01
2019-03-19T08:47:35.121Z,77.84
2019-03-19T08:48:37.336Z,77.42
2019-03-19T08:49:35.087Z,77.42
2019-03-19T08:50:35.158Z,76.87
2019-03-19T08:51:35.071Z,76.73
2019-03-19T08:52:35.059Z,76.63
2019-03-19T08:53:35.051Z,75.39
2019-03-19T08:54:35.040Z,75.91
2019-03-19T08:55:35.028Z,76.01
2019-03-19T08:56:35.051Z,75.98
2019-03-19T08:57:35.037Z,75.18
2019-03-19T08:58:34.996Z,75.70
2019-03-19T08:59:34.985Z,75.18
2019-03-19T09:00:34.980Z,74.67
2019-03-19T09:01:34.984Z,74.77
2019-03-19T09:02:34.954Z,74.15
2019-03-19T09:03:34.971Z,73.43
2019-03-19T09:04:34.934Z,74.05
2019-03-19T09:05:34.943Z,73.64
2019-03-19T09:06:34.923Z,75.18
2019-03-19T09:07:34.902Z,74.57
2019-03-19T09:08:34.892Z,74.57
2019-03-19T09:09:34.893Z,74.36
2019-03-19T09:10:34.872Z,73.64
2019-03-19T09:11:36.566Z,72.88
2019-03-19T09:12:34.855Z,73.19
2019-03-19T09:13:34.840Z,72.47
2019-03-19T09:14:34.832Z,73.16
2019-03-19T09:15:34.831Z,71.82
2019-03-19T09:16:34.823Z,71.82
2019-03-19T09:17:34.801Z,71.51
2019-03-19T09:18:34.808Z,71.37
2019-03-19T09:19:34.782Z,72.30
2019-03-19T09:20:34.786Z,71.89
2019-03-19T09:21:34.768Z,73.02
2019-03-19T09:22:34.752Z,71.96
2019-03-19T09:23:34.735Z,70.93
2019-03-19T09:24:34.725Z,70.62
2019-03-19T09:25:34.722Z,70.72
2019-03-19T09:26:34.715Z,71.03
2019-03-19T09:27:34.694Z,70.42
2019-03-19T09:28:34.685Z,70.21
2019-03-19T09:29:34.673Z,69.49
2019-03-19T09:30:34.666Z,67.12
2019-03-19T09:31:34.668Z,68.15
2019-03-19T09:32:34.641Z,68.66
2019-03-19T09:33:34.635Z,67.74
2019-03-19T09:34:34.621Z,68.15
2019-03-19T09:35:34.621Z,67.43
2019-03-19T09:36:34.612Z,66.67
2019-03-19T09:37:34.591Z,67.30
2019-03-19T09:38:34.576Z,67.60
2019-03-19T09:39:34.566Z,66.16
2019-03-19T09:40:34.556Z,67.50
2019-03-19T09:41:34.560Z,67.26
2019-03-19T09:42:34.533Z,68.08
2019-03-19T09:43:34.525Z,67.47
2019-03-19T09:44:34.513Z,66.51
2019-03-19T09:45:34.503Z,66.82
2019-03-19T09:46:34.511Z,65.86
2019-03-19T09:47:34.480Z,66.51
2019-03-19T09:48:34.477Z,65.97
2019-03-19T09:49:34.467Z,67.51
2019-03-19T09:50:34.452Z,66.86
2019-03-19T09:51:34.455Z,64.91
2019-03-19T09:52:34.429Z,62.31
2019-03-19T09:53:34.415Z,61.80
2019-03-19T09:54:34.408Z,62.70
2019-03-19T09:55:34.396Z,61.46
2019-03-19T09:56:34.400Z,60.95
2019-03-19T09:57:34.378Z,61.13
2019-03-19T09:58:34.365Z,63.18
2019-03-19T09:59:34.352Z,65.12
2019-03-19T10:00:34.341Z,65.10
2019-03-19T10:01:34.347Z,63.46
2019-03-19T10:02:34.322Z,63.76
2019-03-19T10:03:34.316Z,63.56
2019-03-19T10:04:34.305Z,63.02
2019-03-19T10:05:34.298Z,61.07
2019-03-19T10:06:34.291Z,61.35
2019-03-19T10:07:34.268Z,62.58
2019-03-19T10:08:34.260Z,62.78
2019-03-19T10:09:34.254Z,62.88
2019-03-19T10:10:34.289Z,61.83
2019-03-19T10:11:34.262Z,60.91
2019-03-19T10:12:34.216Z,61.15
2019-03-19T10:13:34.204Z,59.68
2019-03-19T10:14:34.194Z,60.30
2019-03-19T10:15:34.197Z,60.22
2019-03-19T10:16:34.174Z,59.81
2019-03-19T10:17:34.172Z,61.15
2019-03-19T10:18:34.153Z,60.53
2019-03-19T10:19:34.142Z,61.45
2019-03-19T10:20:34.133Z,61.04
2019-03-19T10:21:34.120Z,60.66
2019-03-19T10:22:34.123Z,60.66
2019-03-19T10:23:34.099Z,60.86
2019-03-19T10:24:34.087Z,61.71
2019-03-19T10:25:34.093Z,61.92
2019-03-19T10:26:34.068Z,61.10
2019-03-19T10:27:34.071Z,60.58
2019-03-19T10:28:34.047Z,61.20
2019-03-19T10:29:38.112Z,61.27
2019-03-19T10:30:34.024Z,60.97
2019-03-19T10:31:34.014Z,60.15
2019-03-19T10:32:34.017Z,60.97
2019-03-19T10:33:33.996Z,60.15
2019-03-19T10:34:33.988Z,60.76
2019-03-19T10:35:33.972Z,60.15
2019-03-19T10:36:33.964Z,60.35
2019-03-19T10:37:33.964Z,60.25
2019-03-19T10:38:33.956Z,60.84
2019-03-19T10:39:33.940Z,59.74
2019-03-19T10:40:33.920Z,59.30
2019-03-19T10:41:33.908Z,59.71
2019-03-19T10:42:33.911Z,59.71
2019-03-19T10:43:33.895Z,59.41
2019-03-19T10:44:33.882Z,59.71
2019-03-19T10:45:33.869Z,59.00
2019-03-19T10:46:33.856Z,57.66
2019-03-19T10:47:33.855Z,55.41
2019-03-19T10:48:33.837Z,55.41
2019-03-19T10:49:33.823Z,55.58
2019-03-19T10:50:33.813Z,55.69
2019-03-19T10:51:35.172Z,54.77
2019-03-19T10:52:33.805Z,55.28
2019-03-19T10:53:33.790Z,55.28
2019-03-19T10:54:33.770Z,55.15
2019-03-19T10:55:33.762Z,54.92
2019-03-19T10:56:33.750Z,53.49
2019-03-19T10:57:33.750Z,54.00
2019-03-19T10:58:33.728Z,53.90
2019-03-19T10:59:33.720Z,53.57
2019-03-19T11:00:33.713Z,54.39
2019-03-19T11:01:33.697Z,53.57
2019-03-19T11:02:33.698Z,51.62
2019-03-19T11:03:33.678Z,50.78
2019-03-19T11:04:33.665Z,51.21
2019-03-19T11:05:33.657Z,50.37
2019-03-19T11:06:33.644Z,48.74
2019-03-19T11:07:33.645Z,48.94
2019-03-19T11:08:33.629Z,48.43
2019-03-19T11:09:33.612Z,48.84
2019-03-19T11:10:33.603Z,48.23
2019-03-19T11:11:33.592Z,49.15
2019-03-19T11:12:33.593Z,49.02
2019-03-19T11:13:33.571Z,48.84
2019-03-19T11:14:33.559Z,49.05
2019-03-19T11:15:33.550Z,49.46
2019-03-19T11:16:33.538Z,49.76
2019-03-19T11:17:33.539Z,49.96
2019-03-19T11:18:33.524Z,48.84
2019-03-19T11:19:33.506Z,48.84
2019-03-19T11:20:33.499Z,49.66
2019-03-19T11:21:33.488Z,50.17
2019-03-19T11:22:33.668Z,49.87
2019-03-19T11:23:33.469Z,48.43
2019-03-19T11:24:33.455Z,50.15
2019-03-19T11:25:33.444Z,49.22
2019-03-19T11:26:33.434Z,49.33
2019-03-19T11:27:33.435Z,48.10
2019-03-19T11:28:33.412Z,47.80
2019-03-19T11:29:33.401Z,46.57
2019-03-19T11:30:33.392Z,46.37
2019-03-19T11:31:33.381Z,44.76
2019-03-19T11:32:33.381Z,45.78
2019-03-19T11:33:33.362Z,44.24
2019-03-19T11:34:33.349Z,44.43
2019-03-19T11:35:33.340Z,44.65
2019-03-19T11:36:33.327Z,44.12
2019-03-19T11:37:33.331Z,43.30
2019-03-19T11:38:33.306Z,44.51
2019-03-19T11:39:33.296Z,43.90
2019-03-19T11:40:33.289Z,43.77
2019-03-19T11:41:33.274Z,45.39
2019-03-19T11:42:33.282Z,44.24
2019-03-19T11:43:33.255Z,43.91
2019-03-19T11:44:33.260Z,42.57
2019-03-19T11:45:33.232Z,43.79
2019-03-19T11:46:33.221Z,44.38
2019-03-19T11:47:33.225Z,42.25
2019-03-19T11:48:33.200Z,41.31
2019-03-19T11:49:33.190Z,41.92
2019-03-19T11:50:33.693Z,41.92
2019-03-19T11:51:33.168Z,41.21
2019-03-19T11:52:33.167Z,41.21
2019-03-19T11:53:33.156Z,39.99
2019-03-19T11:54:33.136Z,41.31
2019-03-19T11:55:33.126Z,41.41
2019-03-19T11:56:33.117Z,41.41
2019-03-19T11:57:33.116Z,41.31
2019-03-19T11:58:33.093Z,40.70
2019-03-19T11:59:33.085Z,40.09
2019-03-19T12:00:33.079Z,39.48
2019-03-19T12:01:33.062Z,39.70
2019-03-19T12:02:33.063Z,40.80
2019-03-19T12:03:33.041Z,40.62
2019-03-19T12:04:33.038Z,39.70
2019-03-19T12:05:33.023Z,40.82
2019-03-19T12:06:33.010Z,40.43
2019-03-19T12:07:33.009Z,40.74
2019-03-19T12:08:32.991Z,39.42
2019-03-19T12:09:32.978Z,40.96
2019-03-19T12:10:32.969Z,41.27
2019-03-19T12:11:32.960Z,39.55
2019-03-19T12:12:32.957Z,39.86
2019-03-19T12:13:32.935Z,39.64
2019-03-19T12:14:32.964Z,38.02
2019-03-19T12:15:32.913Z,36.10
2019-03-19T12:16:32.907Z,33.67
2019-03-19T12:17:32.908Z,30.94
2019-03-19T12:18:32.905Z,28.43
2019-03-19T12:19:32.873Z,24.95
2019-03-19T12:20:32.861Z,23.18
2019-03-19T12:21:32.850Z,22.02
2019-03-19T12:22:32.841Z,20.28
2019-03-19T12:23:32.834Z,18.35
2019-03-19T12:24:32.929Z,17.23
2019-03-19T12:25:32.815Z,16.51
2019-03-19T12:26:32.798Z,15.11
2019-03-19T12:27:32.787Z,14.70
2019-03-19T12:28:39.653Z,13.69
2019-03-19T12:29:33.766Z,14.15
2019-03-19T12:30:32.756Z,13.84
2019-03-19T12:31:32.745Z,13.03
2019-03-19T12:32:32.735Z,13.01
2019-03-19T12:33:40.411Z,12.71
2019-03-19T12:34:33.714Z,11.82
2019-03-19T12:35:32.707Z,11.99
2019-03-19T12:36:32.709Z,12.37
2019-03-19T12:37:32.693Z,12.63
2019-03-19T12:38:32.676Z,12.81
2019-03-19T12:39:32.668Z,11.93
2019-03-19T12:40:37.123Z,11.63
2019-03-19T12:41:32.644Z,11.04
2019-03-19T12:42:32.640Z,11.24
2019-03-19T12:43:32.626Z,11.13
2019-03-19T12:44:32.615Z,11.22
2019-03-19T12:45:32.606Z,10.63
2019-03-19T12:46:32.595Z,10.34
2019-03-19T12:47:32.588Z,10.34
2019-03-19T12:48:32.581Z,9.75
2019-03-19T12:49:32.569Z,10.04
2019-03-19T12:50:32.557Z,9.36
2019-03-19T12:51:32.548Z,9.07
2019-03-19T12:52:32.540Z,8.97